Terminal Aerodrome Forecast
Issued by NWS Wilmington, OH

Current Version | Previous Version | Text Only | Print | Product List | Glossary Off
Versions: 1 2 3 4 5 6 7 8 9 10 11 12 13 14 15 16 17 18 19 20

000
FTUS41 KILN 301400 AAA
TAFILN
TAF AMD
KILN 301445Z 3015/3112 24007KT P6SM SCT025 SCT110
     FM301800 25008KT P6SM VCTS BKN040CB
      TEMPO 3018/3020 5SM -TSRA BR OVC025CB
     FM302300 23003KT P6SM SCT040=

USA.gov is the U.S. government's official web portal to all federal, state and local government web resources and services.